KPSC/PSC METAR and TAF weather

Enter ICAO airport designator
Station Type Date Time Source
KPSC METAR 2020/07/07 08:53 UTC NOAA

KPSC 070853Z AUTO 20008G18KT 10SM CLR 18/11 A2985 RMK AO2 PK WND 16027/0833 WSHFT 0820 SLP106 60002 T01830106 51024


Station Type Date Time Source
KPSC Decoded METAR 2020/07/07 08:53 UTC NOAA

TRI-CITIES AIRPORT, WA, United States (KPSC) 46-16N 119-07W 121M
Jul 07, 2020 - 04:53 AM EDT / 2020.07.07 0853 UTC
Wind: from the SSW (200 degrees) at 9 MPH (8 KT) gusting to 21 MPH (18 KT):0
Visibility: 10 mile(s):0
Sky conditions: clear
Temperature: 64.9 F (18.3 C)
Dew Point: 51.1 F (10.6 C)
Relative Humidity: 60%
Pressure (altimeter): 29.85 in. Hg (1010 hPa)
Pressure tendency: 0.07 inches (2.4 hPa) higher than three hours ago
ob: KPSC 070853Z AUTO 20008G18KT 10SM CLR 18/11 A2985 RMK AO2 PK WND 16027/0833 WSHFT 0820 SLP106 60002 T01830106 51024
cycle: 9

Station Type Date Time Source
KPSC TAF 2020/07/07 07:12 UTC NOAA

TAF
AMD KPSC 070709Z 0707/0806 20012G20KT P6SM VCTS BKN060CB BKN100
TEMPO 0707/0709 VRB18G30KT P6SM -TSRA OVC050CB
FM071000 22014G22KT P6SM BKN050 BKN100
FM071500 23017G24KT P6SM SCT070 SCT250
FM072000 23015G22KT P6SM SCT100 BKN250

Example: see airport list